Terminal Aerodrome Forecast
Issued by NWS La Crosse, WI

Home | Current Version | Previous Version | Text Only | Print | Product List | Glossary On
Versions: 1 2 3 4 5 6 7 8 9 10 11 12 13 14 15 16 17 18
000
FTUS43 KARX 190520
TAFLSE
TAF
KLSE 190520Z 1906/2006 12008KT P6SM SCT200 WS013/14040KT
     FM191200 13012KT P6SM SCT200
     FM191600 16015G24KT P6SM SKC
     FM200000 16010KT P6SM BKN150
     FM200300 16010KT P6SM OVC060=

USA.gov is the U.S. government's official web portal to all federal, state and local government web resources and services.